createdAt,value
2023-03-11T00:00:52.374Z,99.90
2023-03-11T00:06:26.515Z,99.90
2023-03-11T00:08:57.147Z,99.90
2023-03-11T00:11:31.727Z,99.90
2023-03-11T00:13:59.407Z,99.90
2023-03-11T00:16:26.679Z,99.90
2023-03-11T00:18:53.923Z,99.90
2023-03-11T00:21:21.094Z,99.90
2023-03-11T00:23:48.329Z,99.90
2023-03-11T00:26:23.964Z,99.90
2023-03-11T00:28:51.440Z,99.90
2023-03-11T00:31:19.550Z,99.90
2023-03-11T00:33:46.779Z,99.90
2023-03-11T00:36:17.610Z,99.90
2023-03-11T00:38:44.579Z,99.90
2023-03-11T00:41:12.006Z,99.90
2023-03-11T00:43:39.607Z,99.90
2023-03-11T00:46:06.749Z,99.90
2023-03-11T00:48:34.258Z,99.90
2023-03-11T00:51:01.780Z,99.90
2023-03-11T00:53:29.282Z,99.90
2023-03-11T00:55:56.202Z,99.90
2023-03-11T00:58:27.716Z,99.90
2023-03-11T01:00:55.027Z,99.90
2023-03-11T01:03:22.393Z,99.90
2023-03-11T01:05:49.626Z,99.90
2023-03-11T01:08:16.914Z,99.90
2023-03-11T01:10:44.136Z,99.90
2023-03-11T01:13:19.575Z,99.90
2023-03-11T01:15:46.844Z,99.90
2023-03-11T01:18:14.742Z,99.90
2023-03-11T01:20:41.962Z,99.90
2023-03-11T01:23:09.375Z,99.90
2023-03-11T01:25:36.934Z,99.90
2023-03-11T01:28:04.219Z,99.90
2023-03-11T01:30:31.446Z,99.90
2023-03-11T01:33:00.520Z,99.90
2023-03-11T01:35:27.916Z,99.90
2023-03-11T01:37:55.069Z,99.90
2023-03-11T01:40:22.605Z,99.90
2023-03-11T01:42:49.766Z,99.90
2023-03-11T01:45:16.609Z,99.90
2023-03-11T01:47:51.231Z,99.90
2023-03-11T01:50:20.760Z,99.90
2023-03-11T01:52:47.892Z,99.90
2023-03-11T01:55:15.341Z,99.90
2023-03-11T01:57:42.279Z,99.90
2023-03-11T02:00:12.055Z,99.90
2023-03-11T02:02:39.288Z,99.90
2023-03-11T02:05:06.574Z,99.90
2023-03-11T02:07:36.230Z,99.90
2023-03-11T02:10:03.798Z,99.90
2023-03-11T02:12:31.827Z,99.90
2023-03-11T02:15:05.152Z,99.90
2023-03-11T02:17:32.384Z,99.90
2023-03-11T02:20:00.022Z,99.90
2023-03-11T02:22:29.569Z,99.90
2023-03-11T02:24:56.731Z,99.90
2023-03-11T02:27:24.151Z,99.90
2023-03-11T02:29:52.064Z,99.90
2023-03-11T02:32:19.051Z,99.90
2023-03-11T02:34:46.040Z,99.90
2023-03-11T02:37:12.894Z,99.90
2023-03-11T02:39:45.655Z,99.90
2023-03-11T02:42:14.039Z,99.90
2023-03-11T02:44:41.369Z,99.90
2023-03-11T02:47:08.748Z,99.90
2023-03-11T02:49:38.306Z,99.90
2023-03-11T02:52:05.587Z,99.90
2023-03-11T02:54:32.210Z,99.90
2023-03-11T02:56:59.011Z,99.90
2023-03-11T02:59:26.201Z,99.90
2023-03-11T03:01:53.645Z,99.90
2023-03-11T03:04:20.985Z,99.90
2023-03-11T03:06:48.399Z,99.90
2023-03-11T03:09:15.602Z,99.90
2023-03-11T03:11:43.167Z,99.90
2023-03-11T03:14:10.738Z,99.90
2023-03-11T03:16:38.188Z,99.90
2023-03-11T03:19:05.747Z,99.90
2023-03-11T03:21:32.567Z,99.90
2023-03-11T03:23:59.976Z,99.90
2023-03-11T03:26:27.379Z,99.90
2023-03-11T03:28:57.340Z,99.90
2023-03-11T03:31:27.044Z,99.90
2023-03-11T03:33:54.540Z,99.90
2023-03-11T03:36:21.958Z,99.90
2023-03-11T03:38:49.303Z,99.90
2023-03-11T03:41:16.625Z,99.90
2023-03-11T03:43:43.945Z,99.90
2023-03-11T03:46:11.264Z,99.90
2023-03-11T03:48:40.475Z,99.90
2023-03-11T03:51:07.614Z,99.90
2023-03-11T03:53:35.018Z,99.90
2023-03-11T03:56:05.337Z,99.90
2023-03-11T03:58:35.077Z,99.90
2023-03-11T04:01:05.017Z,99.90
2023-03-11T04:03:32.262Z,99.90
2023-03-11T04:05:59.529Z,99.90
2023-03-11T04:08:26.873Z,99.90
2023-03-11T04:10:54.031Z,99.90
2023-03-11T04:13:21.188Z,99.90
2023-03-11T04:15:49.556Z,99.90
2023-03-11T04:18:16.903Z,99.90
2023-03-11T04:20:44.066Z,99.90
2023-03-11T04:23:11.219Z,99.90
2023-03-11T04:25:38.380Z,99.90
2023-03-11T04:28:05.707Z,99.90
2023-03-11T04:30:32.995Z,99.90
2023-03-11T04:33:00.149Z,99.90
2023-03-11T04:35:27.340Z,99.90
2023-03-11T04:37:54.533Z,99.90
2023-03-11T04:40:22.292Z,99.90
2023-03-11T04:42:49.421Z,99.90
2023-03-11T04:45:21.728Z,99.90
2023-03-11T04:47:49.195Z,99.90
2023-03-11T04:50:18.766Z,99.90
2023-03-11T04:52:46.143Z,99.90
2023-03-11T04:55:14.293Z,99.90
2023-03-11T04:57:41.536Z,99.90
2023-03-11T05:00:16.162Z,99.90
2023-03-11T05:02:46.114Z,99.90
2023-03-11T05:05:13.405Z,99.90
2023-03-11T05:07:42.835Z,99.90
2023-03-11T05:10:10.060Z,99.90
2023-03-11T05:12:37.193Z,99.90
2023-03-11T05:15:04.408Z,99.90
2023-03-11T05:17:32.060Z,99.90
2023-03-11T05:19:59.217Z,99.90
2023-03-11T05:22:26.558Z,99.90
2023-03-11T05:24:53.715Z,99.90
2023-03-11T05:27:21.804Z,99.90
2023-03-11T05:29:49.362Z,99.90
2023-03-11T05:32:16.615Z,99.90
2023-03-11T05:34:43.818Z,99.90
2023-03-11T05:37:10.988Z,99.90
2023-03-11T05:39:38.459Z,99.90
2023-03-11T05:42:05.614Z,99.90
2023-03-11T05:44:32.745Z,99.90
2023-03-11T05:47:00.117Z,99.90
2023-03-11T05:49:29.715Z,99.90
2023-03-11T05:51:59.415Z,99.90
2023-03-11T05:54:28.490Z,99.90
2023-03-11T05:56:58.274Z,99.90
2023-03-11T05:59:25.609Z,99.90
2023-03-11T06:01:54.445Z,99.90
2023-03-11T06:04:24.175Z,99.90
2023-03-11T06:06:51.327Z,99.90
2023-03-11T06:09:18.682Z,99.90
2023-03-11T06:11:53.106Z,99.90
2023-03-11T06:14:20.426Z,99.90
2023-03-11T06:16:47.533Z,99.90
2023-03-11T06:19:14.869Z,99.90
2023-03-11T06:21:44.574Z,99.90
2023-03-11T06:24:11.721Z,99.90
2023-03-11T06:26:44.927Z,99.90
2023-03-11T06:29:15.100Z,99.90
2023-03-11T06:31:42.252Z,99.90
2023-03-11T06:34:09.646Z,99.90
2023-03-11T06:36:37.002Z,99.90
2023-03-11T06:39:04.778Z,99.90
2023-03-11T06:41:32.241Z,99.90
2023-03-11T06:44:00.237Z,99.90
2023-03-11T06:46:30.513Z,99.90
2023-03-11T06:48:57.862Z,99.90
2023-03-11T06:51:25.128Z,99.90
2023-03-11T06:53:52.942Z,99.90
2023-03-11T06:56:21.132Z,99.90
2023-03-11T06:58:51.785Z,99.90
2023-03-11T07:01:19.068Z,99.90
2023-03-11T07:03:46.733Z,99.90
2023-03-11T07:06:14.206Z,99.90
2023-03-11T07:08:44.467Z,99.90
2023-03-11T07:11:11.989Z,99.90
2023-03-11T07:13:41.832Z,99.90
2023-03-11T07:16:09.148Z,99.90
2023-03-11T07:18:36.550Z,99.90
2023-03-11T07:21:03.968Z,99.90
2023-03-11T07:23:31.638Z,99.90
2023-03-11T07:25:59.007Z,99.90
2023-03-11T07:28:26.367Z,99.90
2023-03-11T07:30:53.646Z,99.90
2023-03-11T07:33:20.881Z,99.90
2023-03-11T07:35:52.701Z,99.90
2023-03-11T07:38:20.955Z,99.90
2023-03-11T07:40:48.169Z,99.90
2023-03-11T07:43:15.164Z,99.90
2023-03-11T07:45:42.496Z,99.90
2023-03-11T07:48:12.790Z,99.90
2023-03-11T07:50:39.444Z,99.90
2023-03-11T07:53:06.610Z,99.90
2023-03-11T07:55:33.507Z,99.90
2023-03-11T07:58:03.898Z,99.90
2023-03-11T08:00:31.209Z,99.90
2023-03-11T08:03:01.622Z,99.90
2023-03-11T08:05:28.220Z,99.90
2023-03-11T08:07:54.865Z,99.90
2023-03-11T08:10:21.722Z,99.90
2023-03-11T08:12:48.405Z,99.90
2023-03-11T08:15:15.121Z,99.90
2023-03-11T08:17:41.760Z,99.90
2023-03-11T08:20:12.740Z,99.90
2023-03-11T08:22:55.450Z,99.90
2023-03-11T08:25:24.124Z,99.90
2023-03-11T08:27:53.377Z,99.90
2023-03-11T08:30:20.929Z,99.90
2023-03-11T08:32:49.918Z,99.90
2023-03-11T08:35:16.642Z,99.90
2023-03-11T08:37:43.471Z,99.90
2023-03-11T08:40:11.503Z,99.90
2023-03-11T08:42:38.121Z,99.90
2023-03-11T08:45:04.926Z,99.90
2023-03-11T08:47:32.011Z,99.90
2023-03-11T08:49:59.476Z,99.90
2023-03-11T08:52:26.556Z,99.90
2023-03-11T08:54:53.633Z,99.90
2023-03-11T08:57:20.334Z,99.90
2023-03-11T08:59:47.529Z,99.90
2023-03-11T09:02:14.563Z,99.90
2023-03-11T09:04:41.257Z,99.90
2023-03-11T09:07:07.978Z,99.90
2023-03-11T09:09:35.027Z,99.90
2023-03-11T09:12:01.928Z,99.90
2023-03-11T09:14:28.986Z,99.90
2023-03-11T09:16:55.671Z,99.90
2023-03-11T09:19:22.662Z,99.90
2023-03-11T09:21:50.300Z,99.90
2023-03-11T09:24:17.389Z,99.90
2023-03-11T09:26:44.037Z,99.90
2023-03-11T09:29:11.162Z,99.90
2023-03-11T09:31:39.340Z,99.90
2023-03-11T09:34:08.634Z,99.90
2023-03-11T09:36:35.824Z,99.90
2023-03-11T09:39:02.901Z,99.90
2023-03-11T09:41:29.991Z,99.90
2023-03-11T09:43:56.928Z,97.40
2023-03-11T09:46:24.499Z,97.80
2023-03-11T09:48:51.349Z,96.50
2023-03-11T09:51:18.339Z,96.00
2023-03-11T09:53:45.946Z,95.50
2023-03-11T09:56:13.487Z,94.00
2023-03-11T09:58:40.185Z,93.30
2023-03-11T10:01:10.791Z,93.10
2023-03-11T10:03:41.881Z,93.60
2023-03-11T10:06:09.622Z,90.70
2023-03-11T10:08:40.151Z,90.10
2023-03-11T10:11:07.207Z,90.40
2023-03-11T10:13:34.406Z,91.20
2023-03-11T10:16:01.400Z,92.20
2023-03-11T10:18:28.613Z,89.90
2023-03-11T10:20:55.978Z,91.50
2023-03-11T10:23:22.603Z,89.50
2023-03-11T10:25:49.384Z,90.40
2023-03-11T10:28:16.256Z,91.30
2023-03-11T10:30:42.898Z,89.30
2023-03-11T10:33:11.136Z,90.90
2023-03-11T10:35:38.742Z,89.30
2023-03-11T10:38:10.999Z,91.00
2023-03-11T10:40:37.889Z,91.00
2023-03-11T10:43:04.824Z,92.60
2023-03-11T10:45:31.660Z,84.10
2023-03-11T10:48:02.552Z,85.40
2023-03-11T10:50:32.340Z,83.90
2023-03-11T10:52:59.931Z,90.60
2023-03-11T10:55:27.262Z,84.80
2023-03-11T10:57:53.952Z,87.40
2023-03-11T11:00:21.563Z,91.70
2023-03-11T11:02:51.467Z,89.10
2023-03-11T11:05:37.409Z,86.00
2023-03-11T11:08:04.126Z,83.80
2023-03-11T11:10:31.117Z,87.00
2023-03-11T11:15:42.623Z,81.60
2023-03-11T11:18:09.703Z,81.40
2023-03-11T11:20:36.849Z,82.90
2023-03-11T11:23:06.504Z,80.20
2023-03-11T11:25:36.638Z,82.70
2023-03-11T11:28:03.712Z,80.10
2023-03-11T11:30:30.577Z,83.10
2023-03-11T11:32:57.743Z,84.20
2023-03-11T11:35:24.976Z,84.00
2023-03-11T11:37:52.129Z,79.10
2023-03-11T11:40:23.500Z,79.70
2023-03-11T11:42:50.664Z,77.90
2023-03-11T11:45:25.037Z,82.80
2023-03-11T11:47:55.115Z,76.60
2023-03-11T11:50:22.305Z,80.40
2023-03-11T11:52:51.771Z,79.60
2023-03-11T11:55:18.625Z,75.50
2023-03-11T11:57:45.497Z,78.30
2023-03-11T12:00:14.482Z,78.80
2023-03-11T12:02:41.745Z,77.90
2023-03-11T12:05:08.862Z,72.70
2023-03-11T12:07:35.625Z,73.00
2023-03-11T12:10:12.984Z,76.50
2023-03-11T12:12:47.396Z,76.60
2023-03-11T12:15:14.145Z,70.10
2023-03-11T12:17:44.146Z,70.50
2023-03-11T12:20:11.380Z,69.10
2023-03-11T12:22:38.338Z,65.70
2023-03-11T12:25:05.548Z,68.10
2023-03-11T12:27:32.616Z,67.90
2023-03-11T12:30:02.542Z,66.30
2023-03-11T12:32:32.162Z,59.30
2023-03-11T12:35:02.113Z,63.40
2023-03-11T12:37:28.817Z,60.20
2023-03-11T12:39:55.642Z,63.00
2023-03-11T12:42:22.495Z,61.60
2023-03-11T12:44:49.506Z,62.90
2023-03-11T12:47:16.696Z,68.00
2023-03-11T12:49:46.981Z,60.80
2023-03-11T12:52:14.143Z,55.80
2023-03-11T12:54:40.807Z,57.80
2023-03-11T12:57:07.524Z,55.60
2023-03-11T12:59:34.362Z,57.30
2023-03-11T13:02:07.011Z,54.80
2023-03-11T13:04:33.829Z,55.90
2023-03-11T13:07:00.487Z,54.40
2023-03-11T13:09:28.495Z,59.00
2023-03-11T13:11:56.674Z,61.00
2023-03-11T13:14:30.614Z,49.40
2023-03-11T13:16:58.058Z,50.00
2023-03-11T13:19:24.818Z,52.20
2023-03-11T13:21:52.012Z,53.00
2023-03-11T13:24:19.617Z,52.50
2023-03-11T13:26:47.336Z,54.90
2023-03-11T13:29:14.499Z,53.70
2023-03-11T13:31:41.867Z,53.00
2023-03-11T13:34:09.329Z,54.20
2023-03-11T13:36:36.059Z,59.30
2023-03-11T13:39:03.121Z,59.60
2023-03-11T13:41:29.911Z,62.90
2023-03-11T13:44:05.437Z,57.80
2023-03-11T13:46:32.278Z,57.40
2023-03-11T13:48:59.087Z,63.20
2023-03-11T13:51:26.414Z,57.90
2023-03-11T13:53:53.450Z,59.10
2023-03-11T13:56:20.400Z,64.60
2023-03-11T13:58:47.670Z,60.80
2023-03-11T14:01:14.768Z,59.70
2023-03-11T14:03:41.783Z,65.50
2023-03-11T14:06:09.323Z,59.50
2023-03-11T14:08:36.752Z,59.70
2023-03-11T14:11:03.387Z,60.40
2023-03-11T14:13:30.101Z,59.90
2023-03-11T14:15:56.794Z,56.20
2023-03-11T14:18:23.461Z,55.80
2023-03-11T14:20:50.419Z,57.80
2023-03-11T14:23:17.122Z,56.30
2023-03-11T14:25:43.861Z,58.10
2023-03-11T14:28:10.801Z,54.20
2023-03-11T14:30:37.457Z,55.90
2023-03-11T14:33:04.569Z,53.30
2023-03-11T14:35:31.794Z,55.50
2023-03-11T14:38:00.212Z,56.00
2023-03-11T14:40:27.450Z,60.70
2023-03-11T14:42:54.927Z,58.80
2023-03-11T14:45:22.195Z,63.10
2023-03-11T14:47:49.485Z,62.30
2023-03-11T14:50:16.128Z,64.90
2023-03-11T14:52:42.835Z,54.40
2023-03-11T14:55:09.561Z,54.80
2023-03-11T14:57:36.303Z,54.90
2023-03-11T15:00:07.957Z,54.90
2023-03-11T15:02:35.018Z,55.90
2023-03-11T15:05:02.187Z,57.60
2023-03-11T15:07:29.237Z,59.30
2023-03-11T15:09:56.490Z,55.80
2023-03-11T15:12:23.797Z,60.00
2023-03-11T15:14:50.964Z,57.30
2023-03-11T15:17:33.334Z,61.90
2023-03-11T15:20:00.881Z,58.90
2023-03-11T15:22:27.613Z,59.30
2023-03-11T15:24:54.807Z,61.30
2023-03-11T15:27:21.785Z,62.90
2023-03-11T15:29:48.511Z,60.60
2023-03-11T15:32:16.086Z,60.30
2023-03-11T15:34:43.055Z,62.10
2023-03-11T15:37:10.047Z,64.50
2023-03-11T15:39:38.355Z,62.90
2023-03-11T15:42:05.115Z,65.40
2023-03-11T15:44:31.999Z,64.80
2023-03-11T15:47:02.819Z,61.20
2023-03-11T15:49:31.489Z,62.00
2023-03-11T15:51:59.132Z,61.90
2023-03-11T15:54:25.946Z,58.50
2023-03-11T15:56:55.445Z,59.10
2023-03-11T15:59:22.232Z,62.80
2023-03-11T16:01:49.068Z,63.20
2023-03-11T16:04:16.131Z,64.90
2023-03-11T16:06:42.846Z,61.80
2023-03-11T16:09:09.974Z,61.10
2023-03-11T16:11:36.779Z,62.00
2023-03-11T16:14:03.497Z,64.70
2023-03-11T16:16:30.515Z,66.20
2023-03-11T16:18:57.235Z,66.40
2023-03-11T16:21:24.115Z,67.00
2023-03-11T16:23:52.332Z,67.60
2023-03-11T16:26:19.219Z,67.30
2023-03-11T16:28:45.991Z,65.40
2023-03-11T16:31:12.977Z,65.80
2023-03-11T16:33:42.593Z,63.70
2023-03-11T16:36:09.513Z,65.80
2023-03-11T16:38:46.469Z,68.70
2023-03-11T16:41:18.578Z,68.40
2023-03-11T16:43:45.681Z,67.90
2023-03-11T16:46:16.187Z,67.40
2023-03-11T16:48:43.250Z,71.30
2023-03-11T16:51:12.548Z,71.30
2023-03-11T16:53:39.293Z,70.70
2023-03-11T16:56:05.979Z,74.30
2023-03-11T16:58:33.230Z,73.00
2023-03-11T17:01:00.185Z,76.10
2023-03-11T17:03:31.583Z,75.90
2023-03-11T17:06:04.337Z,73.30
2023-03-11T17:08:31.868Z,75.00
2023-03-11T17:10:58.601Z,70.10
2023-03-11T17:13:25.420Z,72.40
2023-03-11T17:15:52.199Z,73.80
2023-03-11T17:18:19.015Z,72.70
2023-03-11T17:20:46.006Z,74.00
2023-03-11T17:23:13.118Z,76.20
2023-03-11T17:25:40.074Z,83.70
2023-03-11T17:28:09.833Z,90.20
2023-03-11T17:30:37.583Z,92.50
2023-03-11T17:33:04.770Z,93.80
2023-03-11T17:35:31.699Z,95.10
2023-03-11T17:37:58.580Z,98.60
2023-03-11T17:40:27.203Z,99.80
2023-03-11T17:42:54.156Z,99.90
2023-03-11T17:45:23.820Z,99.90
2023-03-11T17:47:51.380Z,99.90
2023-03-11T17:50:18.630Z,99.90
2023-03-11T17:52:45.343Z,99.90
2023-03-11T17:55:12.217Z,99.90
2023-03-11T17:57:45.584Z,99.90
2023-03-11T18:00:14.798Z,99.90
2023-03-11T18:02:41.839Z,99.90
2023-03-11T18:05:09.504Z,99.90
2023-03-11T18:07:39.275Z,99.90
2023-03-11T18:10:06.133Z,99.90
2023-03-11T18:12:32.904Z,99.90
2023-03-11T18:14:59.827Z,99.90
2023-03-11T18:17:26.645Z,99.90
2023-03-11T18:19:53.374Z,99.90
2023-03-11T18:22:22.447Z,99.90
2023-03-11T18:24:49.792Z,99.90
2023-03-11T18:27:16.481Z,99.90
2023-03-11T18:29:43.916Z,99.90
2023-03-11T18:32:10.764Z,99.90
2023-03-11T18:34:37.857Z,99.90
2023-03-11T18:37:04.587Z,99.90
2023-03-11T18:39:31.416Z,99.90
2023-03-11T18:41:58.195Z,99.90
2023-03-11T18:44:25.304Z,99.90
2023-03-11T18:46:52.065Z,99.90
2023-03-11T18:49:18.822Z,99.90
2023-03-11T18:51:45.597Z,99.90
2023-03-11T18:54:12.317Z,99.90
2023-03-11T18:56:39.021Z,99.90
2023-03-11T18:59:05.868Z,99.90
2023-03-11T19:01:33.155Z,99.90
2023-03-11T19:03:59.955Z,99.90
2023-03-11T19:06:27.134Z,99.90
2023-03-11T19:08:53.812Z,99.90
2023-03-11T19:11:20.589Z,99.90
2023-03-11T19:13:48.126Z,99.90
2023-03-11T19:16:14.986Z,99.90
2023-03-11T19:18:41.845Z,99.90
2023-03-11T19:21:08.854Z,99.90
2023-03-11T19:23:38.409Z,99.90
2023-03-11T19:26:05.116Z,99.90
2023-03-11T19:28:32.889Z,99.90
2023-03-11T19:31:00.001Z,99.90
2023-03-11T19:33:31.707Z,99.90
2023-03-11T19:35:58.558Z,99.90
2023-03-11T19:38:25.658Z,99.90
2023-03-11T19:40:54.898Z,99.90
2023-03-11T19:43:24.130Z,99.90
2023-03-11T19:45:51.014Z,99.90
2023-03-11T19:48:20.499Z,99.90
2023-03-11T19:50:47.310Z,99.90
2023-03-11T19:53:14.117Z,99.90
2023-03-11T19:55:40.976Z,99.90
2023-03-11T19:58:07.787Z,99.90
2023-03-11T20:00:34.586Z,99.90
2023-03-11T20:03:02.869Z,99.90
2023-03-11T20:05:29.764Z,99.90
2023-03-11T20:07:59.961Z,99.90
2023-03-11T20:10:26.841Z,99.90
2023-03-11T20:13:02.226Z,99.90
2023-03-11T20:15:29.528Z,99.90
2023-03-11T20:17:56.518Z,99.90
2023-03-11T20:20:25.957Z,99.90
2023-03-11T20:22:57.554Z,99.90
2023-03-11T20:25:25.243Z,99.90
2023-03-11T20:27:52.301Z,99.90
2023-03-11T20:30:24.567Z,99.90
2023-03-11T20:32:53.962Z,99.90
2023-03-11T20:35:20.881Z,99.90
2023-03-11T20:37:47.834Z,99.90
2023-03-11T20:40:14.707Z,99.90
2023-03-11T20:42:43.166Z,99.90
2023-03-11T20:45:13.210Z,99.90
2023-03-11T20:47:41.718Z,99.90
2023-03-11T20:50:08.712Z,99.90
2023-03-11T20:52:36.134Z,99.90
2023-03-11T20:55:03.146Z,99.90
2023-03-11T20:57:30.116Z,99.90
2023-03-11T20:59:57.236Z,99.90
2023-03-11T21:02:24.475Z,99.90
2023-03-11T21:04:51.334Z,99.90
2023-03-11T21:07:18.770Z,99.90
2023-03-11T21:09:45.504Z,99.90
2023-03-11T21:12:12.277Z,99.90
2023-03-11T21:14:40.336Z,99.90
2023-03-11T21:17:07.269Z,99.90
2023-03-11T21:19:34.206Z,99.90
2023-03-11T21:22:01.143Z,99.90
2023-03-11T21:24:28.152Z,99.90
2023-03-11T21:27:00.461Z,99.90
2023-03-11T21:29:30.816Z,99.90
2023-03-11T21:31:57.761Z,99.90
2023-03-11T21:34:28.028Z,99.90
2023-03-11T21:36:54.835Z,99.90
2023-03-11T21:39:22.060Z,99.90
2023-03-11T21:41:48.852Z,99.90
2023-03-11T21:44:19.213Z,99.90
2023-03-11T21:46:46.214Z,99.90
2023-03-11T21:49:22.288Z,99.90
2023-03-11T21:51:51.809Z,99.90
2023-03-11T21:54:18.800Z,99.90
2023-03-11T21:56:45.958Z,99.90
2023-03-11T21:59:15.969Z,99.90
2023-03-11T22:01:45.741Z,99.90
2023-03-11T22:04:12.798Z,99.90
2023-03-11T22:06:39.912Z,99.90
2023-03-11T22:09:06.841Z,99.90
2023-03-11T22:11:33.547Z,99.90
2023-03-11T22:14:01.506Z,99.90
2023-03-11T22:16:28.578Z,99.90
2023-03-11T22:18:55.599Z,99.90
2023-03-11T22:21:22.512Z,99.90
2023-03-11T22:23:49.356Z,99.90
2023-03-11T22:26:16.343Z,99.90
2023-03-11T22:28:43.157Z,99.90
2023-03-11T22:31:09.908Z,99.90
2023-03-11T22:33:36.666Z,99.90
2023-03-11T22:36:04.966Z,99.90
2023-03-11T22:38:31.736Z,99.90
2023-03-11T22:41:00.438Z,99.90
2023-03-11T22:43:27.288Z,99.90
2023-03-11T22:45:54.292Z,99.90
2023-03-11T22:48:21.157Z,99.90
2023-03-11T22:50:48.059Z,99.90
2023-03-11T22:53:16.133Z,99.90
2023-03-11T22:55:42.975Z,99.90
2023-03-11T22:58:09.693Z,99.90
2023-03-11T23:00:36.956Z,99.90
2023-03-11T23:03:03.800Z,99.90
2023-03-11T23:05:30.477Z,99.90
2023-03-11T23:07:57.316Z,99.90
2023-03-11T23:10:24.441Z,99.90
2023-03-11T23:12:51.209Z,99.90
2023-03-11T23:15:18.016Z,99.90
2023-03-11T23:17:44.892Z,99.90
2023-03-11T23:20:11.600Z,99.90
2023-03-11T23:22:38.559Z,99.90
2023-03-11T23:25:05.332Z,99.90
2023-03-11T23:27:32.233Z,99.90
2023-03-11T23:29:59.046Z,99.90
2023-03-11T23:32:26.527Z,99.90
2023-03-11T23:34:53.323Z,99.90
2023-03-11T23:37:20.107Z,99.90
2023-03-11T23:39:46.887Z,99.90
2023-03-11T23:42:25.748Z,99.90
2023-03-11T23:44:53.271Z,99.90
2023-03-11T23:47:19.995Z,99.90
2023-03-11T23:49:46.756Z,99.90
2023-03-11T23:52:13.736Z,99.90
2023-03-11T23:54:41.283Z,99.90
2023-03-11T23:57:08.035Z,99.90
2023-03-11T23:59:34.808Z,99.90
